createdAt,value
2022-11-26T00:00:40.892Z,8.00
2022-11-26T00:05:44.950Z,7.23
2022-11-26T00:10:50.120Z,7.70
2022-11-26T00:15:52.589Z,6.73
2022-11-26T00:20:59.654Z,7.30
2022-11-26T00:26:03.588Z,6.20
2022-11-26T00:31:11.323Z,7.10
2022-11-26T00:36:26.485Z,7.17
2022-11-26T00:41:34.853Z,6.83
2022-11-26T00:46:36.748Z,7.10
2022-11-26T00:51:39.136Z,6.87
2022-11-26T00:56:41.280Z,6.43
2022-11-26T01:01:43.451Z,7.33
2022-11-26T01:06:45.821Z,7.10
2022-11-26T01:11:53.499Z,5.73
2022-11-26T01:16:57.211Z,6.90
2022-11-26T01:21:59.220Z,6.10
2022-11-26T01:27:00.983Z,6.43
2022-11-26T01:32:03.067Z,6.67
2022-11-26T01:37:12.303Z,5.90
2022-11-26T01:42:30.956Z,6.80
2022-11-26T01:47:33.615Z,6.43
2022-11-26T01:52:35.616Z,7.00
2022-11-26T01:57:38.749Z,5.97
2022-11-26T02:02:41.636Z,6.03
2022-11-26T02:07:44.465Z,5.87
2022-11-26T02:12:47.080Z,5.90
2022-11-26T02:18:01.236Z,5.53
2022-11-26T02:23:25.686Z,5.87
2022-11-26T02:28:39.753Z,5.63
2022-11-26T02:33:44.526Z,5.87
2022-11-26T02:38:46.478Z,5.60
2022-11-26T02:43:48.800Z,5.43
2022-11-26T02:48:52.752Z,5.73
2022-11-26T02:53:55.492Z,6.27
2022-11-26T02:58:58.092Z,5.63
2022-11-26T03:04:05.834Z,6.80
2022-11-26T03:09:08.211Z,6.33
2022-11-26T03:14:10.402Z,5.87
2022-11-26T03:19:12.350Z,4.90
2022-11-26T03:24:14.081Z,4.80
2022-11-26T03:29:15.810Z,4.30
2022-11-26T03:34:17.872Z,5.80
2022-11-26T03:39:19.653Z,5.13
2022-11-26T03:44:21.392Z,5.13
2022-11-26T03:49:23.299Z,4.03
2022-11-26T03:54:25.076Z,5.47
2022-11-26T03:59:27.023Z,4.87
2022-11-26T04:04:29.309Z,4.53
2022-11-26T04:09:31.503Z,4.17
2022-11-26T04:14:33.409Z,4.40
2022-11-26T04:19:35.242Z,3.90
2022-11-26T04:24:37.531Z,3.60
2022-11-26T04:29:39.499Z,4.30
2022-11-26T04:34:41.556Z,5.13
2022-11-26T04:39:43.371Z,4.10
2022-11-26T04:44:45.168Z,4.60
2022-11-26T04:49:47.102Z,3.93
2022-11-26T04:54:49.084Z,4.20
2022-11-26T04:59:50.831Z,4.60
2022-11-26T05:04:52.775Z,4.20
2022-11-26T05:09:54.527Z,4.80
2022-11-26T05:14:56.452Z,4.63
2022-11-26T05:19:58.262Z,3.93
2022-11-26T05:25:00.248Z,4.40
2022-11-26T05:30:03.099Z,3.53
2022-11-26T05:35:05.465Z,4.10
2022-11-26T05:40:08.819Z,3.63
2022-11-26T05:45:10.954Z,4.17
2022-11-26T05:50:12.875Z,4.07
2022-11-26T05:55:16.397Z,3.47
2022-11-26T06:00:18.583Z,5.20
2022-11-26T06:05:20.435Z,4.37
2022-11-26T06:10:22.233Z,4.47
2022-11-26T06:15:24.045Z,4.17
2022-11-26T06:20:25.791Z,3.77
2022-11-26T06:25:27.709Z,4.07
2022-11-26T06:30:29.515Z,4.43
2022-11-26T06:35:31.341Z,5.40
2022-11-26T06:40:33.259Z,3.93
2022-11-26T06:45:35.216Z,3.83
2022-11-26T06:50:37.232Z,4.37
2022-11-26T06:55:39.175Z,3.50
2022-11-26T07:00:42.348Z,4.40
2022-11-26T07:05:44.148Z,5.13
2022-11-26T07:10:48.988Z,4.43
2022-11-26T07:15:51.166Z,4.13
2022-11-26T07:20:53.112Z,4.20
2022-11-26T07:25:54.902Z,3.93
2022-11-26T07:31:02.108Z,4.77
2022-11-26T07:36:06.764Z,5.27
2022-11-26T07:41:11.191Z,4.50
2022-11-26T07:46:17.083Z,4.27
2022-11-26T07:51:24.855Z,3.73
2022-11-26T07:56:27.239Z,4.73
2022-11-26T08:01:30.235Z,5.47
2022-11-26T08:06:32.700Z,4.80
2022-11-26T08:11:34.662Z,4.53
2022-11-26T08:16:37.063Z,6.90
2022-11-26T08:21:39.819Z,6.20
2022-11-26T08:26:44.532Z,6.90
2022-11-26T08:31:47.955Z,6.40
2022-11-26T08:36:49.771Z,6.50
2022-11-26T08:41:52.804Z,4.83
2022-11-26T08:46:54.725Z,4.77
2022-11-26T08:51:57.014Z,4.07
2022-11-26T08:56:58.929Z,4.20
2022-11-26T09:02:00.700Z,4.97
2022-11-26T09:07:02.712Z,4.77
2022-11-26T09:12:04.574Z,6.20
2022-11-26T09:17:07.735Z,4.30
2022-11-26T09:22:09.471Z,4.17
2022-11-26T09:27:12.040Z,6.87
2022-11-26T09:32:24.307Z,3.17
2022-11-26T09:37:28.064Z,4.03
2022-11-26T09:42:37.892Z,3.43
2022-11-26T09:47:42.520Z,4.40
2022-11-26T09:52:53.384Z,3.20
2022-11-26T09:58:03.355Z,3.70
2022-11-26T10:03:17.222Z,4.00
2022-11-26T10:08:48.533Z,3.77
2022-11-26T10:14:12.210Z,4.33
2022-11-26T10:19:49.360Z,3.47
2022-11-26T10:24:51.621Z,3.87
2022-11-26T10:29:59.231Z,3.33
2022-11-26T10:35:00.996Z,3.20
2022-11-26T10:40:26.700Z,3.10
2022-11-26T10:45:41.111Z,3.40
2022-11-26T10:50:54.162Z,3.43
2022-11-26T10:56:00.214Z,3.37
2022-11-26T11:01:03.778Z,2.97
2022-11-26T11:06:13.312Z,2.97
2022-11-26T11:11:24.274Z,3.20
2022-11-26T11:16:38.196Z,2.60
2022-11-26T11:21:48.127Z,2.83
2022-11-26T11:26:55.815Z,2.40
2022-11-26T11:31:58.755Z,2.90
2022-11-26T11:37:04.025Z,3.10
2022-11-26T11:42:28.229Z,2.40
2022-11-26T11:47:36.145Z,3.30
2022-11-26T11:52:55.461Z,2.50
2022-11-26T11:58:21.662Z,3.10
2022-11-26T12:03:45.312Z,10.17
2022-11-26T12:09:12.263Z,3.03
2022-11-26T12:14:36.077Z,2.90
2022-11-26T12:19:40.919Z,2.67
2022-11-26T12:24:57.273Z,3.33
2022-11-26T12:30:11.555Z,2.67
2022-11-26T12:35:30.056Z,2.70
2022-11-26T12:40:42.196Z,2.87
2022-11-26T12:45:47.030Z,2.93
2022-11-26T12:50:54.891Z,3.13
2022-11-26T12:56:06.526Z,2.37
2022-11-26T13:01:10.568Z,2.57
2022-11-26T13:06:27.552Z,2.40
2022-11-26T13:12:08.824Z,2.50
2022-11-26T13:17:16.014Z,3.33
2022-11-26T13:22:48.909Z,2.13
2022-11-26T13:27:53.817Z,2.80
2022-11-26T13:33:20.554Z,2.80
2022-11-26T13:38:41.289Z,2.57
2022-11-26T13:44:22.204Z,2.40
2022-11-26T13:49:44.575Z,3.43
2022-11-26T13:54:52.233Z,2.20
2022-11-26T13:59:56.080Z,2.40
2022-11-26T14:04:57.867Z,2.37
2022-11-26T14:10:02.167Z,2.90
2022-11-26T14:15:41.762Z,2.53
2022-11-26T14:21:02.166Z,2.23
2022-11-26T14:26:04.121Z,2.77
2022-11-26T14:31:23.195Z,2.40
2022-11-26T14:36:27.003Z,2.27
2022-11-26T14:41:52.150Z,2.40
2022-11-26T14:46:58.167Z,2.40
2022-11-26T14:52:02.060Z,2.20
2022-11-26T14:57:25.304Z,2.27
2022-11-26T15:02:29.459Z,2.93
2022-11-26T15:07:32.074Z,2.63
2022-11-26T15:12:35.996Z,2.57
2022-11-26T15:17:44.165Z,2.73
2022-11-26T15:22:55.080Z,2.90
2022-11-26T15:28:04.156Z,2.83
2022-11-26T15:33:09.136Z,2.63
2022-11-26T15:38:15.472Z,2.67
2022-11-26T15:43:40.419Z,3.40
2022-11-26T15:48:56.445Z,3.20
2022-11-26T15:53:58.509Z,3.10
2022-11-26T15:59:05.793Z,3.13
2022-11-26T16:04:33.238Z,3.47
2022-11-26T16:09:35.067Z,3.47
2022-11-26T16:14:39.249Z,3.77
2022-11-26T16:19:50.759Z,3.40
2022-11-26T16:25:18.674Z,3.67
2022-11-26T16:30:20.705Z,4.63
2022-11-26T16:35:44.825Z,3.30
2022-11-26T16:40:47.667Z,3.23
2022-11-26T16:45:53.153Z,3.40
2022-11-26T16:50:55.946Z,3.33
2022-11-26T16:55:58.060Z,3.60
2022-11-26T17:01:00.394Z,4.00
2022-11-26T17:06:07.174Z,4.73
2022-11-26T17:11:13.416Z,3.53
2022-11-26T17:16:19.692Z,3.93
2022-11-26T17:21:21.675Z,4.63
2022-11-26T17:26:23.963Z,5.10
2022-11-26T17:31:26.171Z,4.47
2022-11-26T17:36:35.273Z,4.67
2022-11-26T17:41:38.546Z,4.50
2022-11-26T17:47:08.987Z,4.27
2022-11-26T17:52:03.552Z,3.80
2022-11-26T17:57:05.806Z,4.53
2022-11-26T18:02:08.738Z,5.10
2022-11-26T18:07:19.452Z,4.70
2022-11-26T18:12:25.602Z,5.30
2022-11-26T18:17:28.214Z,4.80
2022-11-26T18:22:29.999Z,5.10
2022-11-26T18:27:31.796Z,5.50
2022-11-26T18:32:33.678Z,4.50
2022-11-26T18:37:37.723Z,6.37
2022-11-26T18:42:39.517Z,6.00
2022-11-26T18:47:41.532Z,5.63
2022-11-26T18:52:43.355Z,5.40
2022-11-26T18:57:45.174Z,6.00
2022-11-26T19:02:47.180Z,6.17
2022-11-26T19:07:49.207Z,5.43
2022-11-26T19:12:51.010Z,4.57
2022-11-26T19:17:53.022Z,5.43
2022-11-26T19:22:54.908Z,5.13
2022-11-26T19:27:58.107Z,5.17
2022-11-26T19:33:02.921Z,5.07
2022-11-26T19:38:04.832Z,5.37
2022-11-26T19:43:06.765Z,4.40
2022-11-26T19:48:08.842Z,4.70
2022-11-26T19:53:10.643Z,5.03
2022-11-26T19:58:12.390Z,4.07
2022-11-26T20:03:14.203Z,4.33
2022-11-26T20:08:16.572Z,3.50
2022-11-26T20:13:18.523Z,4.07
2022-11-26T20:18:20.490Z,4.00
2022-11-26T20:23:22.422Z,5.20
2022-11-26T20:28:24.639Z,3.60
2022-11-26T20:33:26.644Z,4.30
2022-11-26T20:38:28.622Z,3.70
2022-11-26T20:43:30.647Z,3.73
2022-11-26T20:48:34.108Z,4.63
2022-11-26T20:53:38.293Z,4.67
2022-11-26T20:58:41.483Z,4.07
2022-11-26T21:03:43.810Z,3.63
2022-11-26T21:08:46.409Z,3.67
2022-11-26T21:13:48.330Z,4.40
2022-11-26T21:18:53.264Z,3.90
2022-11-26T21:23:55.371Z,3.90
2022-11-26T21:28:59.429Z,3.97
2022-11-26T21:34:03.495Z,4.07
2022-11-26T21:39:06.253Z,3.23
2022-11-26T21:44:08.776Z,2.83
2022-11-26T21:49:11.009Z,4.27
2022-11-26T21:54:12.993Z,2.97
2022-11-26T21:59:16.015Z,3.10
2022-11-26T22:04:19.655Z,3.43
2022-11-26T22:09:21.489Z,3.00
2022-11-26T22:14:23.405Z,3.27
2022-11-26T22:19:25.219Z,3.20
2022-11-26T22:24:27.206Z,3.20
2022-11-26T22:29:29.132Z,2.90
2022-11-26T22:34:31.579Z,3.30
2022-11-26T22:39:33.602Z,3.57
2022-11-26T22:44:35.361Z,3.57
2022-11-26T22:49:37.355Z,3.17
2022-11-26T22:54:39.424Z,3.50
2022-11-26T22:59:41.603Z,3.60
2022-11-26T23:04:43.951Z,4.40
2022-11-26T23:09:47.131Z,4.67
2022-11-26T23:14:49.383Z,4.57
2022-11-26T23:19:51.240Z,4.40
2022-11-26T23:24:53.179Z,4.00
2022-11-26T23:29:54.974Z,4.53
2022-11-26T23:34:56.983Z,3.70
2022-11-26T23:39:58.865Z,4.37
2022-11-26T23:45:00.756Z,4.07
2022-11-26T23:50:03.980Z,3.77
2022-11-26T23:55:06.174Z,3.67
